createdAt,value
2023-05-19T00:01:55.234Z,10.20
2023-05-19T00:04:24.693Z,10.20
2023-05-19T00:06:57.556Z,10.30
2023-05-19T00:09:25.000Z,10.20
2023-05-19T00:12:03.315Z,10.20
2023-05-19T00:14:37.684Z,10.20
2023-05-19T00:17:05.891Z,10.10
2023-05-19T00:19:35.794Z,10.10
2023-05-19T00:22:03.225Z,10.20
2023-05-19T00:24:33.791Z,10.00
2023-05-19T00:27:03.536Z,10.10
2023-05-19T00:29:33.561Z,10.00
2023-05-19T00:32:01.998Z,9.90
2023-05-19T00:34:29.509Z,10.10
2023-05-19T00:37:10.019Z,10.00
2023-05-19T00:39:43.392Z,10.00
2023-05-19T00:42:18.772Z,10.00
2023-05-19T00:44:46.938Z,10.00
2023-05-19T00:47:22.072Z,9.90
2023-05-19T00:49:50.979Z,9.80
2023-05-19T00:52:18.796Z,9.80
2023-05-19T00:54:50.728Z,9.80
2023-05-19T00:57:23.788Z,9.70
2023-05-19T00:59:54.650Z,9.80
2023-05-19T01:02:22.713Z,9.80
2023-05-19T01:04:51.841Z,9.70
2023-05-19T01:07:23.796Z,9.70
2023-05-19T01:09:53.185Z,9.80
2023-05-19T01:12:20.443Z,9.70
2023-05-19T01:14:48.468Z,9.70
2023-05-19T01:17:32.348Z,9.70
2023-05-19T01:20:29.477Z,9.70
2023-05-19T01:23:17.058Z,9.70
2023-05-19T01:26:03.316Z,9.60
2023-05-19T01:29:07.695Z,9.70
2023-05-19T01:31:38.834Z,9.60
2023-05-19T01:34:19.821Z,9.50
2023-05-19T01:36:51.123Z,9.50
2023-05-19T01:39:26.138Z,9.50
2023-05-19T01:41:58.472Z,9.50
2023-05-19T01:44:31.620Z,9.50
2023-05-19T01:47:05.005Z,9.50
2023-05-19T01:49:34.912Z,9.40
2023-05-19T01:52:05.316Z,9.40
2023-05-19T01:54:35.565Z,9.40
2023-05-19T01:57:24.443Z,9.40
2023-05-19T02:00:20.547Z,9.30
2023-05-19T02:03:18.776Z,9.20
2023-05-19T02:05:57.671Z,9.20
2023-05-19T02:08:35.574Z,9.20
2023-05-19T02:11:25.365Z,9.20
2023-05-19T02:13:59.352Z,9.20
2023-05-19T02:16:29.331Z,9.20
2023-05-19T02:19:04.869Z,9.20
2023-05-19T02:21:37.174Z,9.10
2023-05-19T02:24:12.377Z,9.10
2023-05-19T02:26:44.349Z,9.20
2023-05-19T02:29:11.764Z,9.10
2023-05-19T02:31:40.645Z,9.10
2023-05-19T02:34:09.061Z,9.00
2023-05-19T02:36:38.096Z,9.10
2023-05-19T02:39:06.285Z,9.00
2023-05-19T02:41:33.851Z,9.00
2023-05-19T02:44:04.366Z,9.00
2023-05-19T02:46:32.000Z,9.00
2023-05-19T02:49:02.003Z,9.00
2023-05-19T02:51:29.471Z,9.00
2023-05-19T02:53:57.395Z,9.00
2023-05-19T02:56:24.780Z,9.10
2023-05-19T02:58:56.917Z,9.10
2023-05-19T03:01:38.014Z,9.00
2023-05-19T03:04:06.208Z,9.10
2023-05-19T03:06:37.266Z,9.10
2023-05-19T03:09:04.909Z,9.10
2023-05-19T03:11:33.709Z,9.10
2023-05-19T03:14:01.460Z,9.30
2023-05-19T03:16:38.489Z,9.20
2023-05-19T03:19:06.041Z,9.20
2023-05-19T03:21:38.364Z,9.20
2023-05-19T03:24:08.700Z,9.30
2023-05-19T03:26:42.598Z,9.20
2023-05-19T03:29:14.892Z,9.30
2023-05-19T03:31:46.444Z,9.30
2023-05-19T03:34:14.121Z,9.30
2023-05-19T03:36:59.345Z,9.40
2023-05-19T03:39:27.641Z,9.50
2023-05-19T03:41:56.552Z,9.60
2023-05-19T03:44:24.021Z,9.60
2023-05-19T03:46:56.748Z,9.70
2023-05-19T03:49:24.256Z,9.70
2023-05-19T03:51:54.675Z,9.80
2023-05-19T03:54:30.020Z,9.90
2023-05-19T03:57:02.917Z,10.00
2023-05-19T03:59:42.412Z,10.10
2023-05-19T04:02:12.790Z,10.40
2023-05-19T04:04:41.658Z,11.50
2023-05-19T04:07:11.796Z,13.30
2023-05-19T04:09:45.236Z,14.80
2023-05-19T04:12:20.396Z,16.00
2023-05-19T04:14:51.331Z,17.10
2023-05-19T04:17:40.845Z,18.50
2023-05-19T04:20:09.218Z,19.50
2023-05-19T04:22:40.616Z,20.50
2023-05-19T04:25:14.486Z,21.30
2023-05-19T04:27:51.906Z,22.10
2023-05-19T04:30:34.754Z,22.50
2023-05-19T04:33:04.005Z,23.30
2023-05-19T04:35:52.292Z,23.70
2023-05-19T04:38:24.316Z,24.10
2023-05-19T04:40:56.521Z,24.60
2023-05-19T04:43:28.690Z,24.90
2023-05-19T04:45:59.932Z,25.30
2023-05-19T04:48:31.053Z,25.60
2023-05-19T04:51:01.740Z,25.50
2023-05-19T04:53:42.406Z,25.50
2023-05-19T04:56:17.371Z,25.50
2023-05-19T04:58:46.076Z,25.60
2023-05-19T05:01:26.099Z,25.90
2023-05-19T05:03:59.317Z,26.30
2023-05-19T05:06:29.093Z,26.20
2023-05-19T05:09:04.348Z,26.40
2023-05-19T05:11:42.322Z,27.00
2023-05-19T05:14:25.758Z,27.70
2023-05-19T05:17:00.051Z,28.30
2023-05-19T05:20:01.240Z,28.50
2023-05-19T05:22:22.325Z,28.50
2023-05-19T05:24:53.674Z,28.80
2023-05-19T05:27:32.201Z,29.00
2023-05-19T05:30:06.095Z,29.40
2023-05-19T05:32:39.045Z,29.80
2023-05-19T05:35:29.032Z,30.10
2023-05-19T05:38:01.111Z,30.30
2023-05-19T05:40:38.015Z,30.60
2023-05-19T05:43:12.707Z,30.90
2023-05-19T05:45:52.379Z,31.30
2023-05-19T05:48:29.871Z,31.70
2023-05-19T05:51:11.280Z,31.80
2023-05-19T05:53:57.821Z,32.20
2023-05-19T05:56:42.573Z,32.60
2023-05-19T05:59:11.149Z,32.60
2023-05-19T06:01:45.399Z,32.50
2023-05-19T06:04:28.151Z,32.40
2023-05-19T06:07:05.753Z,32.50
2023-05-19T06:10:05.712Z,32.70
2023-05-19T06:12:56.245Z,33.00
2023-05-19T06:15:30.680Z,33.50
2023-05-19T06:18:05.906Z,34.10
2023-05-19T06:27:39.656Z,34.90
2023-05-19T06:33:58.445Z,36.00
2023-05-19T06:39:49.256Z,36.00
2023-05-19T06:42:37.095Z,36.60
2023-05-19T06:45:16.852Z,37.20
2023-05-19T06:48:11.770Z,37.00
2023-05-19T06:51:25.104Z,37.20
2023-05-19T06:54:23.561Z,37.70
2023-05-19T06:57:33.104Z,38.40
2023-05-19T07:00:31.090Z,39.10
2023-05-19T07:08:21.860Z,39.50
2023-05-19T07:14:29.319Z,40.20
2023-05-19T07:15:35.946Z,40.20
2023-05-19T07:31:03.672Z,41.10
2023-05-19T07:33:56.406Z,41.00
2023-05-19T07:41:06.480Z,42.60
2023-05-19T07:48:39.551Z,42.90
2023-05-19T07:54:30.110Z,43.40
2023-05-19T07:57:05.566Z,43.80
2023-05-19T08:00:05.353Z,44.00
2023-05-19T08:02:57.124Z,43.20
2023-05-19T08:05:41.679Z,42.90
2023-05-19T08:08:20.680Z,42.80
2023-05-19T08:10:54.686Z,42.60
2023-05-19T08:13:44.723Z,42.50
2023-05-19T08:16:27.065Z,41.60
2023-05-19T08:19:27.455Z,41.10
2023-05-19T08:25:59.364Z,41.40
2023-05-19T08:33:33.090Z,42.60
2023-05-19T08:36:05.185Z,42.10
2023-05-19T08:43:03.926Z,41.80
2023-05-19T08:46:03.202Z,42.40
2023-05-19T08:50:17.505Z,43.00
2023-05-19T08:57:03.403Z,43.70
2023-05-19T09:00:10.978Z,43.50
2023-05-19T09:03:16.948Z,43.60
2023-05-19T09:06:08.179Z,43.70
2023-05-19T09:11:31.739Z,43.10
2023-05-19T09:14:13.241Z,42.80
2023-05-19T09:16:57.965Z,42.10
2023-05-19T09:20:15.691Z,40.80
2023-05-19T09:22:54.860Z,40.10
2023-05-19T09:25:38.647Z,40.00
2023-05-19T09:33:29.128Z,39.80
2023-05-19T09:35:51.454Z,38.80
2023-05-19T09:38:27.506Z,38.20
2023-05-19T09:41:01.299Z,37.00
2023-05-19T09:44:02.572Z,36.20
2023-05-19T09:46:55.983Z,35.60
2023-05-19T09:49:53.155Z,35.10
2023-05-19T09:52:52.763Z,34.10
2023-05-19T09:56:15.805Z,33.20
2023-05-19T09:59:09.295Z,32.60
2023-05-19T10:02:06.923Z,32.60
2023-05-19T10:05:10.330Z,32.30
2023-05-19T10:08:07.776Z,32.50
2023-05-19T10:11:22.972Z,32.40
2023-05-19T10:14:13.404Z,32.10
2023-05-19T10:17:04.343Z,31.40
2023-05-19T10:19:58.685Z,30.70
2023-05-19T10:22:36.164Z,29.90
2023-05-19T10:25:27.572Z,29.50
2023-05-19T10:28:13.174Z,29.10
2023-05-19T10:30:52.359Z,28.40
2023-05-19T10:34:09.441Z,27.90
2023-05-19T10:36:51.375Z,27.20
2023-05-19T10:39:44.335Z,26.30
2023-05-19T10:42:56.377Z,25.50
2023-05-19T10:45:41.312Z,24.80
2023-05-19T10:48:25.784Z,24.30
2023-05-19T10:51:17.257Z,24.20
2023-05-19T10:54:04.904Z,23.70
2023-05-19T10:56:42.304Z,23.20
2023-05-19T10:59:46.955Z,23.10
2023-05-19T11:02:40.891Z,23.10
2023-05-19T11:05:18.252Z,22.80
2023-05-19T11:08:13.786Z,22.60
2023-05-19T11:10:47.428Z,22.40
2023-05-19T11:13:37.617Z,22.40
2023-05-19T11:16:11.418Z,22.20
2023-05-19T11:18:57.706Z,22.10
2023-05-19T11:21:53.868Z,21.90
2023-05-19T11:24:56.953Z,21.70
2023-05-19T11:27:35.142Z,21.50
2023-05-19T11:30:20.921Z,21.50
2023-05-19T11:33:53.346Z,21.70
2023-05-19T11:36:12.658Z,21.60
2023-05-19T11:38:58.941Z,21.70
2023-05-19T11:41:42.991Z,21.80
2023-05-19T11:44:33.084Z,21.90
2023-05-19T11:47:08.961Z,21.80
2023-05-19T11:49:44.246Z,21.80
2023-05-19T11:52:20.213Z,21.70
2023-05-19T11:54:54.747Z,21.60
2023-05-19T11:57:56.061Z,21.60
2023-05-19T12:00:44.433Z,21.70
2023-05-19T12:03:24.997Z,21.80
2023-05-19T12:05:55.286Z,21.70
2023-05-19T12:08:24.793Z,21.50
2023-05-19T12:11:48.608Z,21.50
2023-05-19T12:14:08.566Z,21.50
2023-05-19T12:16:37.390Z,21.30
2023-05-19T12:19:14.633Z,21.10
2023-05-19T12:21:45.302Z,21.10
2023-05-19T12:24:22.872Z,20.90
2023-05-19T12:26:55.176Z,20.90
2023-05-19T12:29:26.805Z,21.20
2023-05-19T12:31:54.819Z,21.30
2023-05-19T12:34:23.608Z,21.50
2023-05-19T12:36:54.136Z,21.60
2023-05-19T12:39:25.359Z,21.70
2023-05-19T12:42:14.883Z,21.80
2023-05-19T12:44:56.939Z,21.90
2023-05-19T12:47:36.438Z,22.00
2023-05-19T12:50:14.093Z,21.80
2023-05-19T12:53:00.556Z,21.60
2023-05-19T12:55:48.402Z,21.40
2023-05-19T12:58:17.126Z,21.40
2023-05-19T13:00:52.217Z,21.50
2023-05-19T13:03:24.351Z,21.60
2023-05-19T13:06:09.664Z,21.60
2023-05-19T13:11:39.321Z,21.70
2023-05-19T13:14:26.771Z,21.60
2023-05-19T13:17:02.781Z,21.50
2023-05-19T13:19:33.296Z,21.30
2023-05-19T13:22:04.182Z,21.30
2023-05-19T13:24:41.355Z,21.30
2023-05-19T13:27:11.673Z,21.30
2023-05-19T13:29:43.045Z,21.40
2023-05-19T13:32:11.035Z,21.00
2023-05-19T13:34:46.022Z,20.80
2023-05-19T13:37:13.778Z,20.50
2023-05-19T13:39:49.723Z,20.20
2023-05-19T13:42:22.990Z,20.10
2023-05-19T13:45:00.194Z,20.00
2023-05-19T13:47:31.530Z,20.10
2023-05-19T13:49:59.595Z,20.20
2023-05-19T13:52:30.936Z,20.10
2023-05-19T13:55:23.847Z,20.00
2023-05-19T13:57:56.733Z,19.80
2023-05-19T14:00:28.300Z,19.70
2023-05-19T14:02:56.752Z,19.70
2023-05-19T14:05:28.590Z,19.80
2023-05-19T14:08:01.889Z,19.80
2023-05-19T14:10:31.544Z,19.80
2023-05-19T14:16:00.784Z,19.60
2023-05-19T14:18:33.052Z,19.50
2023-05-19T14:21:01.300Z,19.50
2023-05-19T14:23:32.515Z,19.70
2023-05-19T14:26:06.684Z,19.80
2023-05-19T14:28:35.411Z,19.90
2023-05-19T14:31:13.138Z,20.00
2023-05-19T14:33:53.342Z,19.90
2023-05-19T14:36:22.672Z,19.70
2023-05-19T14:39:11.119Z,19.50
2023-05-19T14:41:39.214Z,19.30
2023-05-19T14:44:10.516Z,19.20
2023-05-19T14:46:39.106Z,19.20
2023-05-19T14:49:11.913Z,19.30
2023-05-19T14:51:44.360Z,19.20
2023-05-19T14:54:13.032Z,19.00
2023-05-19T14:56:43.769Z,18.90
2023-05-19T14:59:13.652Z,18.70
2023-05-19T15:01:43.598Z,18.60
2023-05-19T15:04:11.399Z,18.70
2023-05-19T15:06:39.636Z,18.70
2023-05-19T15:09:12.266Z,18.70
2023-05-19T15:11:41.684Z,18.60
2023-05-19T15:14:12.146Z,18.60
2023-05-19T15:16:42.984Z,18.60
2023-05-19T15:19:10.639Z,18.50
2023-05-19T15:21:42.752Z,18.50
2023-05-19T15:24:10.731Z,18.10
2023-05-19T15:26:42.135Z,18.00
2023-05-19T15:29:12.729Z,17.90
2023-05-19T15:31:41.306Z,17.90
2023-05-19T15:34:14.754Z,17.70
2023-05-19T15:36:42.348Z,17.60
2023-05-19T15:39:10.172Z,17.50
2023-05-19T15:41:37.962Z,17.50
2023-05-19T15:44:07.080Z,17.40
2023-05-19T15:46:40.811Z,17.40
2023-05-19T15:49:10.429Z,17.40
2023-05-19T15:51:43.090Z,17.30
2023-05-19T15:54:11.190Z,17.10
2023-05-19T15:56:40.952Z,17.10
2023-05-19T15:59:09.839Z,17.00
2023-05-19T16:01:38.594Z,17.00
2023-05-19T16:04:06.054Z,17.10
2023-05-19T16:06:33.967Z,17.10
2023-05-19T16:09:01.647Z,17.10
2023-05-19T16:11:30.012Z,17.10
2023-05-19T16:13:57.650Z,17.10
2023-05-19T16:16:27.537Z,17.00
2023-05-19T16:18:56.196Z,16.80
2023-05-19T16:21:25.974Z,16.70
2023-05-19T16:23:54.255Z,16.60
2023-05-19T16:26:22.220Z,16.60
2023-05-19T16:28:52.089Z,16.50
2023-05-19T16:31:21.298Z,16.50
2023-05-19T16:33:48.706Z,16.40
2023-05-19T16:36:18.951Z,16.30
2023-05-19T16:38:46.298Z,16.30
2023-05-19T16:41:16.262Z,16.20
2023-05-19T16:43:46.522Z,16.10
2023-05-19T16:46:17.744Z,16.10
2023-05-19T16:48:45.697Z,15.90
2023-05-19T16:51:18.728Z,15.90
2023-05-19T16:53:55.136Z,15.70
2023-05-19T16:56:22.459Z,15.70
2023-05-19T16:58:50.236Z,15.60
2023-05-19T17:01:17.873Z,15.50
2023-05-19T17:03:45.651Z,15.50
2023-05-19T17:06:12.964Z,15.50
2023-05-19T17:08:42.289Z,15.30
2023-05-19T17:11:10.073Z,15.30
2023-05-19T17:13:37.499Z,15.20
2023-05-19T17:16:05.429Z,15.10
2023-05-19T17:18:32.859Z,15.10
2023-05-19T17:21:06.169Z,15.10
2023-05-19T17:23:33.837Z,15.00
2023-05-19T17:26:02.667Z,15.00
2023-05-19T17:28:33.392Z,15.00
2023-05-19T17:31:01.605Z,14.90
2023-05-19T17:33:32.049Z,14.80
2023-05-19T17:36:02.414Z,14.80
2023-05-19T17:38:32.367Z,14.80
2023-05-19T17:41:05.379Z,14.60
2023-05-19T17:43:32.821Z,14.70
2023-05-19T17:46:02.225Z,14.60
2023-05-19T17:48:32.479Z,14.60
2023-05-19T17:51:00.797Z,14.60
2023-05-19T17:53:28.729Z,14.60
2023-05-19T17:56:01.362Z,14.50
2023-05-19T17:58:29.257Z,14.60
2023-05-19T18:00:57.678Z,14.50
2023-05-19T18:03:28.479Z,14.40
2023-05-19T18:06:01.895Z,14.40
2023-05-19T18:08:31.139Z,14.30
2023-05-19T18:10:59.253Z,14.30
2023-05-19T18:13:27.369Z,14.30
2023-05-19T18:15:57.786Z,14.10
2023-05-19T18:18:26.860Z,14.20
2023-05-19T18:20:57.950Z,14.10
2023-05-19T18:23:25.427Z,14.00
2023-05-19T18:25:56.116Z,14.10
2023-05-19T18:28:24.284Z,14.00
2023-05-19T18:31:03.025Z,13.90
2023-05-19T18:33:31.344Z,13.80
2023-05-19T18:35:59.449Z,13.90
2023-05-19T18:38:28.874Z,13.80
2023-05-19T18:41:01.576Z,13.70
2023-05-19T18:43:33.943Z,13.70
2023-05-19T18:46:01.879Z,13.70
2023-05-19T18:48:29.804Z,13.60
2023-05-19T18:50:58.715Z,13.50
2023-05-19T18:53:26.674Z,13.50
2023-05-19T18:55:54.087Z,13.50
2023-05-19T18:58:22.193Z,13.50
2023-05-19T19:00:50.441Z,13.40
2023-05-19T19:03:18.512Z,13.30
2023-05-19T19:05:55.418Z,13.40
2023-05-19T19:08:32.348Z,13.30
2023-05-19T19:11:01.287Z,13.30
2023-05-19T19:13:38.231Z,13.20
2023-05-19T19:16:08.414Z,13.20
2023-05-19T19:18:39.107Z,13.20
2023-05-19T19:21:08.891Z,13.10
2023-05-19T19:23:36.400Z,13.20
2023-05-19T19:26:05.896Z,13.10
2023-05-19T19:28:33.463Z,13.10
2023-05-19T19:31:03.706Z,13.10
2023-05-19T19:33:31.408Z,13.10
2023-05-19T19:35:58.800Z,13.00
2023-05-19T19:38:26.475Z,13.00
2023-05-19T19:40:54.325Z,13.00
2023-05-19T19:43:29.285Z,13.00
2023-05-19T19:46:04.458Z,13.00
2023-05-19T19:48:36.224Z,12.90
2023-05-19T19:51:07.819Z,12.90
2023-05-19T19:53:35.171Z,12.90
2023-05-19T19:56:04.983Z,12.80
2023-05-19T19:58:32.399Z,12.80
2023-05-19T20:01:02.844Z,12.90
2023-05-19T20:03:30.698Z,12.90
2023-05-19T20:06:00.450Z,12.80
2023-05-19T20:08:28.025Z,12.90
2023-05-19T20:10:55.375Z,12.80
2023-05-19T20:13:25.637Z,12.80
2023-05-19T20:15:53.554Z,12.80
2023-05-19T20:18:23.182Z,12.80
2023-05-19T20:20:50.921Z,12.90
2023-05-19T20:23:18.835Z,12.90
2023-05-19T20:26:02.483Z,12.90
2023-05-19T20:28:35.291Z,12.90
2023-05-19T20:31:02.699Z,12.80
2023-05-19T20:33:30.189Z,12.90
2023-05-19T20:35:57.544Z,12.80
2023-05-19T20:38:25.345Z,12.80
2023-05-19T20:40:54.276Z,12.80
2023-05-19T20:43:21.872Z,12.80
2023-05-19T20:45:49.600Z,12.70
2023-05-19T20:48:17.160Z,12.70
2023-05-19T20:50:44.710Z,12.80
2023-05-19T20:53:16.135Z,12.70
2023-05-19T20:55:46.814Z,12.80
2023-05-19T20:58:14.808Z,12.80
2023-05-19T21:00:44.516Z,12.70
2023-05-19T21:03:12.158Z,12.70
2023-05-19T21:05:39.563Z,12.70
2023-05-19T21:08:13.086Z,12.70
2023-05-19T21:10:41.100Z,12.60
2023-05-19T21:13:08.564Z,12.60
2023-05-19T21:15:36.282Z,12.60
2023-05-19T21:18:07.049Z,12.60
2023-05-19T21:20:35.974Z,12.50
2023-05-19T21:23:08.649Z,12.60
2023-05-19T21:25:36.398Z,12.50
2023-05-19T21:28:03.922Z,12.50
2023-05-19T21:30:31.500Z,12.50
2023-05-19T21:33:01.444Z,12.50
2023-05-19T21:35:28.904Z,12.50
2023-05-19T21:37:56.661Z,12.50
2023-05-19T21:40:23.901Z,12.50
2023-05-19T21:42:51.530Z,12.50
2023-05-19T21:45:19.101Z,12.50
2023-05-19T21:47:46.756Z,12.50
2023-05-19T21:50:17.816Z,12.40
2023-05-19T21:52:47.683Z,12.40
2023-05-19T21:55:14.892Z,12.30
2023-05-19T21:57:42.594Z,12.30
2023-05-19T22:00:13.294Z,12.40
2023-05-19T22:02:43.836Z,12.30
2023-05-19T22:05:12.098Z,12.30
2023-05-19T22:07:39.772Z,12.30
2023-05-19T22:10:08.483Z,12.20
2023-05-19T22:12:38.989Z,12.20
2023-05-19T22:15:07.468Z,12.10
2023-05-19T22:17:37.058Z,12.10
2023-05-19T22:20:05.379Z,12.10
2023-05-19T22:22:33.086Z,12.00
2023-05-19T22:25:00.681Z,12.00
2023-05-19T22:27:29.060Z,12.00
2023-05-19T22:29:56.659Z,11.90
2023-05-19T22:32:24.577Z,11.90
2023-05-19T22:34:52.095Z,11.80
2023-05-19T22:37:21.668Z,11.90
2023-05-19T22:39:49.331Z,11.80
2023-05-19T22:42:16.580Z,11.70
2023-05-19T22:44:44.356Z,11.70
2023-05-19T22:47:16.110Z,11.80
2023-05-19T22:49:43.774Z,11.60
2023-05-19T22:52:12.189Z,11.60
2023-05-19T22:54:39.844Z,11.60
2023-05-19T22:57:07.441Z,11.60
2023-05-19T22:59:35.618Z,11.50
2023-05-19T23:02:02.978Z,11.50
2023-05-19T23:04:30.280Z,11.50
2023-05-19T23:06:58.272Z,11.60
2023-05-19T23:09:27.413Z,11.60
2023-05-19T23:11:55.208Z,11.50
2023-05-19T23:14:22.695Z,11.50
2023-05-19T23:16:54.175Z,11.50
2023-05-19T23:19:22.385Z,11.40
2023-05-19T23:21:53.210Z,11.50
2023-05-19T23:24:20.675Z,11.30
2023-05-19T23:26:50.463Z,11.30
2023-05-19T23:29:17.873Z,11.40
2023-05-19T23:31:45.162Z,11.40
2023-05-19T23:34:12.640Z,11.30
2023-05-19T23:36:40.491Z,11.30
2023-05-19T23:39:10.188Z,11.30
2023-05-19T23:41:38.069Z,11.20
2023-05-19T23:44:06.165Z,11.20
2023-05-19T23:46:33.736Z,11.10
2023-05-19T23:49:01.650Z,11.10
2023-05-19T23:51:29.080Z,11.10
2023-05-19T23:53:56.402Z,11.10
2023-05-19T23:56:23.691Z,11.10
2023-05-19T23:58:51.712Z,11.10
